createdAt,value
2022-08-26T00:01:28.975Z,4.90
2022-08-26T00:04:04.180Z,5.90
2022-08-26T00:06:37.444Z,5.00
2022-08-26T00:09:10.947Z,5.10
2022-08-26T00:11:44.748Z,4.90
2022-08-26T00:14:19.918Z,5.30
2022-08-26T00:16:53.638Z,4.90
2022-08-26T00:19:28.354Z,4.80
2022-08-26T00:22:01.185Z,5.20
2022-08-26T00:24:35.412Z,4.40
2022-08-26T00:27:08.964Z,5.10
2022-08-26T00:29:43.876Z,4.90
2022-08-26T00:32:18.556Z,4.50
2022-08-26T00:34:52.069Z,4.60
2022-08-26T00:37:25.781Z,4.60
2022-08-26T00:39:59.227Z,4.80
2022-08-26T00:42:34.510Z,4.80
2022-08-26T00:45:10.227Z,4.70
2022-08-26T00:47:54.000Z,4.80
2022-08-26T00:50:31.501Z,4.50
2022-08-26T00:53:27.975Z,4.40
2022-08-26T00:56:20.771Z,4.50
2022-08-26T00:58:56.236Z,4.30
2022-08-26T01:01:30.974Z,4.50
2022-08-26T01:04:06.234Z,4.40
2022-08-26T01:06:40.176Z,4.30
2022-08-26T01:09:18.539Z,4.40
2022-08-26T01:11:55.651Z,4.70
2022-08-26T01:14:35.044Z,4.30
2022-08-26T01:17:12.300Z,4.50
2022-08-26T01:19:51.916Z,4.40
2022-08-26T01:22:35.760Z,4.70
2022-08-26T01:25:10.479Z,4.10
2022-08-26T01:27:44.029Z,4.30
2022-08-26T01:30:19.809Z,4.30
2022-08-26T01:32:53.919Z,3.80
2022-08-26T01:35:27.443Z,4.30
2022-08-26T01:38:02.665Z,4.10
2022-08-26T01:40:40.554Z,4.00
2022-08-26T01:43:22.508Z,4.30
2022-08-26T01:45:57.574Z,4.10
2022-08-26T01:48:33.526Z,4.30
2022-08-26T01:51:11.312Z,4.50
2022-08-26T01:53:46.343Z,4.70
2022-08-26T01:56:20.463Z,4.50
2022-08-26T01:59:03.308Z,4.60
2022-08-26T02:01:39.110Z,4.10
2022-08-26T02:04:42.169Z,4.70
2022-08-26T02:07:16.909Z,4.60
2022-08-26T02:09:52.717Z,4.30
2022-08-26T02:12:27.624Z,4.70
2022-08-26T02:15:05.833Z,5.30
2022-08-26T02:17:47.127Z,4.50
2022-08-26T02:20:23.246Z,4.50
2022-08-26T02:22:56.875Z,4.00
2022-08-26T02:25:45.365Z,4.30
2022-08-26T02:28:19.826Z,4.80
2022-08-26T02:30:55.516Z,4.60
2022-08-26T02:33:31.824Z,4.20
2022-08-26T02:36:06.354Z,4.40
2022-08-26T02:38:41.101Z,4.60
2022-08-26T02:41:15.386Z,4.20
2022-08-26T02:43:51.490Z,4.20
2022-08-26T02:46:29.849Z,4.30
2022-08-26T02:49:05.851Z,5.00
2022-08-26T02:51:40.927Z,4.70
2022-08-26T02:54:17.139Z,4.50
2022-08-26T02:56:51.990Z,5.00
2022-08-26T02:59:26.292Z,4.50
2022-08-26T03:02:02.281Z,4.80
2022-08-26T03:04:36.864Z,4.50
2022-08-26T03:07:12.359Z,4.50
2022-08-26T03:09:46.616Z,4.40
2022-08-26T03:12:21.144Z,4.60
2022-08-26T03:14:54.902Z,4.80
2022-08-26T03:17:29.241Z,4.70
2022-08-26T03:20:03.981Z,4.50
2022-08-26T03:22:37.974Z,4.40
2022-08-26T03:25:12.704Z,4.80
2022-08-26T03:27:47.849Z,4.70
2022-08-26T03:30:44.677Z,4.60
2022-08-26T03:33:18.241Z,4.30
2022-08-26T03:35:52.900Z,4.60
2022-08-26T03:38:26.965Z,4.50
2022-08-26T03:41:01.467Z,4.30
2022-08-26T03:43:34.844Z,5.20
2022-08-26T03:46:10.393Z,5.50
2022-08-26T03:48:45.080Z,5.40
2022-08-26T03:51:21.317Z,5.60
2022-08-26T03:53:54.809Z,5.70
2022-08-26T03:56:28.204Z,5.50
2022-08-26T03:59:04.061Z,4.90
2022-08-26T04:01:38.476Z,4.40
2022-08-26T04:04:15.545Z,5.30
2022-08-26T04:06:49.652Z,4.90
2022-08-26T04:09:24.228Z,5.00
2022-08-26T04:11:59.346Z,5.20
2022-08-26T04:14:32.994Z,4.80
2022-08-26T04:17:06.560Z,5.20
2022-08-26T04:19:41.631Z,5.20
2022-08-26T04:22:15.391Z,4.90
2022-08-26T04:24:59.214Z,4.40
2022-08-26T04:27:32.199Z,5.10
2022-08-26T04:30:06.323Z,5.00
2022-08-26T04:32:42.270Z,5.20
2022-08-26T04:35:15.789Z,4.50
2022-08-26T04:37:51.091Z,4.50
2022-08-26T04:40:25.159Z,5.30
2022-08-26T04:43:00.643Z,5.20
2022-08-26T04:45:34.056Z,5.20
2022-08-26T04:48:07.894Z,5.50
2022-08-26T04:50:44.160Z,5.20
2022-08-26T04:53:23.807Z,5.80
2022-08-26T04:55:57.848Z,5.60
2022-08-26T04:58:31.043Z,5.90
2022-08-26T05:01:05.672Z,5.80
2022-08-26T05:03:39.666Z,6.10
2022-08-26T05:06:16.486Z,6.00
2022-08-26T05:08:53.022Z,4.90
2022-08-26T05:11:26.874Z,5.20
2022-08-26T05:14:02.293Z,5.40
2022-08-26T05:16:35.486Z,5.50
2022-08-26T05:19:09.679Z,5.30
2022-08-26T05:21:44.848Z,5.60
2022-08-26T05:24:21.393Z,5.20
2022-08-26T05:26:55.118Z,5.50
2022-08-26T05:29:30.739Z,5.40
2022-08-26T05:32:05.096Z,5.10
2022-08-26T05:34:38.762Z,4.80
2022-08-26T05:37:13.608Z,4.60
2022-08-26T05:39:51.290Z,5.10
2022-08-26T05:42:27.176Z,5.10
2022-08-26T05:45:01.652Z,4.90
2022-08-26T05:47:38.161Z,5.40
2022-08-26T05:50:13.189Z,5.40
2022-08-26T05:52:47.710Z,5.00
2022-08-26T05:55:22.049Z,5.40
2022-08-26T05:57:55.791Z,5.60
2022-08-26T06:00:29.357Z,4.80
2022-08-26T06:03:03.081Z,4.60
2022-08-26T06:05:45.649Z,4.80
2022-08-26T06:08:22.127Z,4.50
2022-08-26T06:10:58.396Z,4.40
2022-08-26T06:13:32.693Z,4.70
2022-08-26T06:16:14.852Z,4.60
2022-08-26T06:18:49.936Z,5.10
2022-08-26T06:21:28.045Z,5.90
2022-08-26T06:24:27.049Z,5.00
2022-08-26T06:27:11.359Z,5.10
2022-08-26T06:29:45.276Z,4.80
2022-08-26T06:32:19.083Z,4.80
2022-08-26T06:34:54.690Z,4.60
2022-08-26T06:37:28.643Z,5.20
2022-08-26T06:40:03.658Z,4.90
2022-08-26T06:42:38.749Z,5.00
2022-08-26T06:45:13.696Z,5.20
2022-08-26T06:47:47.458Z,5.00
2022-08-26T06:50:23.086Z,4.80
2022-08-26T06:52:57.154Z,4.90
2022-08-26T06:55:34.864Z,5.20
2022-08-26T06:58:10.023Z,4.40
2022-08-26T07:00:47.341Z,4.30
2022-08-26T07:03:22.614Z,5.30
2022-08-26T07:06:02.890Z,5.00
2022-08-26T07:08:36.739Z,5.10
2022-08-26T07:11:12.035Z,5.20
2022-08-26T07:13:47.384Z,5.00
2022-08-26T07:16:22.752Z,4.50
2022-08-26T07:18:59.060Z,5.10
2022-08-26T07:21:34.591Z,5.10
2022-08-26T07:24:08.747Z,4.50
2022-08-26T07:26:44.746Z,5.20
2022-08-26T07:29:19.148Z,5.00
2022-08-26T07:31:52.681Z,5.10
2022-08-26T07:34:26.402Z,5.20
2022-08-26T07:37:00.691Z,4.70
2022-08-26T07:39:35.042Z,3.60
2022-08-26T07:42:10.305Z,5.00
2022-08-26T07:44:45.070Z,4.90
2022-08-26T07:47:24.932Z,4.60
2022-08-26T07:50:01.176Z,5.30
2022-08-26T07:52:35.257Z,5.00
2022-08-26T07:55:10.165Z,5.20
2022-08-26T07:57:43.373Z,5.10
2022-08-26T08:00:18.471Z,5.20
2022-08-26T08:02:52.576Z,5.60
2022-08-26T08:05:33.732Z,4.90
2022-08-26T08:08:26.988Z,4.70
2022-08-26T08:11:04.831Z,5.00
2022-08-26T08:13:40.202Z,5.00
2022-08-26T08:16:13.790Z,5.60
2022-08-26T08:18:47.785Z,4.80
2022-08-26T08:21:23.989Z,5.10
2022-08-26T08:23:59.396Z,4.90
2022-08-26T08:26:32.444Z,5.00
2022-08-26T08:29:06.158Z,4.20
2022-08-26T08:31:56.535Z,5.50
2022-08-26T08:34:34.322Z,5.10
2022-08-26T08:37:11.564Z,3.80
2022-08-26T08:39:45.239Z,5.10
2022-08-26T08:42:41.733Z,5.50
2022-08-26T08:45:37.041Z,5.50
2022-08-26T08:48:27.921Z,5.20
2022-08-26T08:51:29.211Z,5.90
2022-08-26T08:54:03.752Z,4.90
2022-08-26T08:56:55.880Z,4.40
2022-08-26T08:59:42.432Z,4.90
2022-08-26T09:02:18.544Z,5.10
2022-08-26T09:05:08.668Z,4.20
2022-08-26T09:08:11.191Z,5.10
2022-08-26T09:10:51.417Z,5.50
2022-08-26T09:13:27.346Z,5.50
2022-08-26T09:16:04.755Z,5.50
2022-08-26T09:18:40.442Z,4.90
2022-08-26T09:21:17.918Z,6.20
2022-08-26T09:23:56.805Z,6.20
2022-08-26T09:26:49.897Z,5.00
2022-08-26T09:29:30.842Z,6.10
2022-08-26T09:32:22.658Z,5.30
2022-08-26T09:35:06.869Z,5.70
2022-08-26T09:40:39.188Z,5.80
2022-08-26T09:43:23.185Z,5.50
2022-08-26T09:46:13.123Z,6.10
2022-08-26T09:48:46.469Z,6.50
2022-08-26T09:51:25.207Z,8.90
2022-08-26T09:54:01.322Z,8.80
2022-08-26T09:56:37.593Z,7.10
2022-08-26T09:59:13.923Z,6.00
2022-08-26T10:01:48.077Z,6.70
2022-08-26T10:04:27.439Z,6.00
2022-08-26T10:07:09.474Z,6.30
2022-08-26T10:09:46.000Z,6.20
2022-08-26T10:12:23.905Z,5.60
2022-08-26T10:15:02.508Z,5.40
2022-08-26T10:17:51.969Z,5.50
2022-08-26T10:20:38.182Z,4.90
2022-08-26T10:23:23.324Z,6.00
2022-08-26T10:26:06.964Z,5.60
2022-08-26T10:28:45.993Z,5.30
2022-08-26T10:31:38.098Z,5.50
2022-08-26T10:34:15.194Z,5.50
2022-08-26T10:37:16.216Z,5.50
2022-08-26T10:40:06.305Z,5.70
2022-08-26T10:42:53.905Z,5.50
2022-08-26T10:45:31.236Z,5.10
2022-08-26T10:48:14.882Z,6.10
2022-08-26T10:53:56.379Z,5.30
2022-08-26T10:56:30.819Z,6.40
2022-08-26T10:59:29.403Z,5.30
2022-08-26T11:02:36.817Z,6.40
2022-08-26T11:05:23.209Z,4.70
2022-08-26T11:08:16.445Z,5.70
2022-08-26T11:11:00.073Z,4.00
2022-08-26T11:14:01.739Z,6.00
2022-08-26T11:16:43.825Z,5.80
2022-08-26T11:20:01.928Z,7.60
2022-08-26T11:22:47.469Z,6.30
2022-08-26T11:25:30.208Z,5.60
2022-08-26T11:28:06.358Z,6.90
2022-08-26T11:30:44.802Z,6.10
2022-08-26T11:33:46.733Z,7.00
2022-08-26T11:36:36.932Z,5.20
2022-08-26T11:39:24.799Z,6.20
2022-08-26T11:42:05.212Z,6.80
2022-08-26T11:44:49.095Z,6.20
2022-08-26T11:47:31.605Z,6.70
2022-08-26T11:50:26.821Z,6.70
2022-08-26T11:53:07.674Z,7.40
2022-08-26T11:55:47.302Z,7.30
2022-08-26T11:58:22.630Z,6.50
2022-08-26T12:01:11.596Z,6.60
2022-08-26T12:03:53.694Z,6.20
2022-08-26T12:06:30.506Z,5.40
2022-08-26T12:09:07.790Z,7.00
2022-08-26T12:11:42.099Z,7.10
2022-08-26T12:14:27.669Z,7.00
2022-08-26T12:17:17.187Z,7.20
2022-08-26T12:19:53.615Z,6.50
2022-08-26T12:22:39.912Z,5.70
2022-08-26T12:25:27.132Z,7.30
2022-08-26T12:28:10.436Z,6.30
2022-08-26T12:31:08.924Z,6.50
2022-08-26T12:33:43.008Z,5.90
2022-08-26T12:36:21.757Z,7.60
2022-08-26T12:38:58.313Z,7.90
2022-08-26T12:42:24.028Z,7.20
2022-08-26T12:45:04.950Z,8.10
2022-08-26T12:47:46.133Z,8.10
2022-08-26T12:50:25.874Z,7.90
2022-08-26T12:53:18.760Z,7.30
2022-08-26T12:56:04.340Z,8.60
2022-08-26T12:58:39.787Z,8.30
2022-08-26T13:01:12.551Z,8.50
2022-08-26T13:03:48.068Z,8.70
2022-08-26T13:06:24.127Z,8.70
2022-08-26T13:08:59.957Z,8.70
2022-08-26T13:11:43.261Z,8.20
2022-08-26T13:14:23.721Z,7.20
2022-08-26T13:19:30.141Z,9.70
2022-08-26T13:22:05.729Z,10.00
2022-08-26T13:24:46.429Z,10.30
2022-08-26T13:27:23.978Z,7.90
2022-08-26T13:29:58.840Z,9.20
2022-08-26T13:32:33.602Z,9.60
2022-08-26T13:35:07.323Z,9.70
2022-08-26T13:37:40.778Z,7.80
2022-08-26T13:40:15.418Z,8.90
2022-08-26T13:42:49.981Z,10.30
2022-08-26T13:45:23.722Z,8.60
2022-08-26T13:47:56.951Z,9.40
2022-08-26T13:50:30.270Z,10.30
2022-08-26T13:53:03.620Z,10.40
2022-08-26T13:55:36.466Z,9.80
2022-08-26T13:58:10.268Z,9.70
2022-08-26T14:00:46.022Z,9.50
2022-08-26T14:03:20.782Z,8.70
2022-08-26T14:05:55.870Z,9.00
2022-08-26T14:08:30.219Z,8.90
2022-08-26T14:11:03.908Z,9.70
2022-08-26T14:13:38.162Z,8.30
2022-08-26T14:16:16.838Z,10.50
2022-08-26T14:18:51.150Z,8.70
2022-08-26T14:21:25.903Z,9.80
2022-08-26T14:24:01.023Z,9.80
2022-08-26T14:26:35.423Z,9.40
2022-08-26T14:29:10.592Z,9.00
2022-08-26T14:31:46.153Z,8.80
2022-08-26T14:34:19.719Z,9.60
2022-08-26T14:36:53.060Z,9.90
2022-08-26T14:39:26.936Z,10.00
2022-08-26T14:42:01.162Z,8.90
2022-08-26T14:44:35.785Z,9.20
2022-08-26T14:47:09.670Z,8.80
2022-08-26T14:49:42.580Z,8.80
2022-08-26T14:52:15.712Z,9.00
2022-08-26T14:54:54.889Z,8.50
2022-08-26T14:57:29.877Z,10.30
2022-08-26T15:00:02.691Z,10.80
2022-08-26T15:02:35.526Z,12.00
2022-08-26T15:05:09.176Z,10.10
2022-08-26T15:07:42.662Z,10.00
2022-08-26T15:10:18.871Z,8.90
2022-08-26T15:12:52.614Z,9.30
2022-08-26T15:15:26.544Z,9.90
2022-08-26T15:18:00.021Z,10.20
2022-08-26T15:23:12.752Z,10.20
2022-08-26T15:25:48.813Z,9.90
2022-08-26T15:28:22.644Z,10.00
2022-08-26T15:30:57.430Z,9.60
2022-08-26T15:33:31.448Z,8.90
2022-08-26T15:36:05.876Z,9.60
2022-08-26T15:38:43.904Z,9.30
2022-08-26T15:41:18.185Z,9.00
2022-08-26T15:43:52.483Z,9.60
2022-08-26T15:46:27.165Z,9.70
2022-08-26T15:49:00.229Z,9.80
2022-08-26T15:51:45.341Z,9.40
2022-08-26T15:54:23.046Z,11.60
2022-08-26T15:56:56.448Z,9.60
2022-08-26T15:59:32.282Z,9.20
2022-08-26T16:02:06.033Z,9.80
2022-08-26T16:04:39.240Z,10.60
2022-08-26T16:07:12.954Z,9.90
2022-08-26T16:09:46.234Z,9.00
2022-08-26T16:12:28.476Z,9.40
2022-08-26T16:15:01.775Z,10.20
2022-08-26T16:17:35.068Z,10.00
2022-08-26T16:20:08.741Z,11.30
2022-08-26T16:22:41.627Z,10.20
2022-08-26T16:25:14.694Z,10.60
2022-08-26T16:27:47.534Z,10.90
2022-08-26T16:30:22.270Z,10.70
2022-08-26T16:32:57.913Z,10.30
2022-08-26T16:35:31.150Z,9.80
2022-08-26T16:38:03.918Z,9.60
2022-08-26T16:40:38.179Z,9.30
2022-08-26T16:43:11.098Z,10.10
2022-08-26T16:45:50.591Z,9.60
2022-08-26T16:48:24.220Z,8.70
2022-08-26T16:50:57.624Z,10.10
2022-08-26T16:53:30.967Z,10.70
2022-08-26T16:56:05.439Z,10.30
2022-08-26T16:58:39.734Z,10.10
2022-08-26T17:01:13.290Z,9.70
2022-08-26T17:03:46.535Z,9.00
2022-08-26T17:06:20.077Z,10.50
2022-08-26T17:08:53.748Z,9.50
2022-08-26T17:11:26.814Z,10.10
2022-08-26T17:13:59.688Z,9.50
2022-08-26T17:16:32.815Z,10.20
2022-08-26T17:19:06.950Z,10.10
2022-08-26T17:21:41.148Z,10.80
2022-08-26T17:24:14.395Z,9.80
2022-08-26T17:26:53.427Z,11.00
2022-08-26T17:29:31.255Z,10.30
2022-08-26T17:32:05.890Z,10.60
2022-08-26T17:34:39.739Z,10.20
2022-08-26T17:37:12.860Z,10.10
2022-08-26T17:39:45.971Z,10.30
2022-08-26T17:42:19.491Z,10.80
2022-08-26T17:44:53.021Z,12.40
2022-08-26T17:47:25.949Z,10.90
2022-08-26T17:49:59.250Z,12.00
2022-08-26T17:52:32.685Z,13.40
2022-08-26T17:55:06.340Z,11.70
2022-08-26T17:57:40.621Z,12.10
2022-08-26T18:00:20.407Z,11.50
2022-08-26T18:02:53.621Z,12.00
2022-08-26T18:05:28.027Z,12.50
2022-08-26T18:08:03.880Z,12.30
2022-08-26T18:10:38.577Z,12.30
2022-08-26T18:13:12.921Z,12.70
2022-08-26T18:15:49.348Z,13.30
2022-08-26T18:18:23.512Z,12.40
2022-08-26T18:21:01.628Z,11.40
2022-08-26T18:23:36.240Z,12.90
2022-08-26T18:26:11.393Z,11.10
2022-08-26T18:28:46.603Z,11.50
2022-08-26T18:31:20.074Z,11.40
2022-08-26T18:33:53.634Z,11.00
2022-08-26T18:36:32.149Z,10.80
2022-08-26T18:39:06.386Z,10.30
2022-08-26T18:41:45.451Z,10.30
2022-08-26T18:44:21.932Z,10.10
2022-08-26T18:46:56.035Z,10.80
2022-08-26T18:49:29.782Z,10.80
2022-08-26T18:52:02.875Z,10.40
2022-08-26T18:54:36.147Z,10.90
2022-08-26T18:57:09.174Z,11.00
2022-08-26T18:59:42.417Z,11.60
2022-08-26T19:02:16.097Z,10.70
2022-08-26T19:04:49.590Z,11.10
2022-08-26T19:07:23.956Z,10.40
2022-08-26T19:09:56.820Z,10.60
2022-08-26T19:12:30.196Z,10.00
2022-08-26T19:15:07.390Z,10.50
2022-08-26T19:17:40.763Z,10.40
2022-08-26T19:20:14.331Z,9.90
2022-08-26T19:22:47.786Z,10.40
2022-08-26T19:25:21.249Z,10.20
2022-08-26T19:27:54.494Z,11.00
2022-08-26T19:30:28.483Z,10.20
2022-08-26T19:33:05.971Z,11.00
2022-08-26T19:35:41.302Z,10.80
2022-08-26T19:38:15.960Z,11.70
2022-08-26T19:40:49.574Z,10.60
2022-08-26T19:43:23.309Z,11.10
2022-08-26T19:45:57.948Z,9.30
2022-08-26T19:48:32.435Z,10.30
2022-08-26T19:51:07.076Z,10.40
2022-08-26T19:53:41.402Z,10.50
2022-08-26T19:56:16.046Z,10.00
2022-08-26T19:58:49.446Z,9.60
2022-08-26T20:01:23.824Z,9.80
2022-08-26T20:03:57.781Z,9.80
2022-08-26T20:06:31.597Z,9.70
2022-08-26T20:09:05.423Z,8.90
2022-08-26T20:11:39.759Z,9.50
2022-08-26T20:14:13.807Z,10.30
2022-08-26T20:16:48.290Z,10.50
2022-08-26T20:19:40.624Z,11.20
2022-08-26T20:22:14.921Z,12.00
2022-08-26T20:24:50.125Z,13.30
2022-08-26T20:27:37.852Z,13.20
2022-08-26T20:30:14.188Z,12.40
2022-08-26T20:32:49.007Z,13.30
2022-08-26T20:35:24.464Z,13.00
2022-08-26T20:37:58.696Z,13.00
2022-08-26T20:40:34.039Z,12.30
2022-08-26T20:43:08.069Z,11.80
2022-08-26T20:45:42.286Z,12.20
2022-08-26T20:48:15.954Z,12.00
2022-08-26T20:50:49.425Z,11.60
2022-08-26T20:53:22.754Z,12.30
2022-08-26T20:56:04.315Z,11.50
2022-08-26T20:58:38.469Z,12.30
2022-08-26T21:01:18.806Z,11.20
2022-08-26T21:03:55.332Z,11.80
2022-08-26T21:06:28.751Z,12.40
2022-08-26T21:09:03.461Z,13.20
2022-08-26T21:11:39.373Z,12.70
2022-08-26T21:14:16.687Z,13.30
2022-08-26T21:16:51.447Z,12.60
2022-08-26T21:19:25.120Z,11.20
2022-08-26T21:22:00.262Z,11.40
2022-08-26T21:24:33.928Z,10.30
2022-08-26T21:27:07.410Z,9.50
2022-08-26T21:29:40.700Z,10.00
2022-08-26T21:32:15.762Z,9.50
2022-08-26T21:34:49.131Z,9.50
2022-08-26T21:37:22.209Z,9.80
2022-08-26T21:39:58.957Z,9.00
2022-08-26T21:42:34.966Z,9.10
2022-08-26T21:45:09.341Z,8.80
2022-08-26T21:47:42.887Z,9.90
2022-08-26T21:50:16.222Z,8.50
2022-08-26T21:52:49.739Z,8.40
2022-08-26T21:55:23.472Z,9.40
2022-08-26T21:57:56.742Z,9.60
2022-08-26T22:00:29.824Z,8.90
2022-08-26T22:03:03.014Z,9.90
2022-08-26T22:05:36.154Z,10.10
2022-08-26T22:08:09.156Z,10.10
2022-08-26T22:10:45.597Z,9.00
2022-08-26T22:13:19.390Z,9.30
2022-08-26T22:15:52.863Z,8.70
2022-08-26T22:18:30.037Z,9.20
2022-08-26T22:21:06.119Z,9.30
2022-08-26T22:23:41.001Z,9.70
2022-08-26T22:26:15.719Z,9.30
2022-08-26T22:29:02.890Z,10.00
2022-08-26T22:31:38.727Z,9.10
2022-08-26T22:34:16.170Z,10.10
2022-08-26T22:36:50.704Z,9.60
2022-08-26T22:39:27.183Z,9.10
2022-08-26T22:42:00.888Z,9.10
2022-08-26T22:44:37.618Z,8.90
2022-08-26T22:47:11.383Z,9.40
2022-08-26T22:49:47.227Z,10.80
2022-08-26T22:52:20.852Z,10.40
2022-08-26T22:54:54.463Z,9.50
2022-08-26T22:57:28.633Z,8.70
2022-08-26T23:00:03.153Z,8.90
2022-08-26T23:02:37.344Z,8.20
2022-08-26T23:05:12.565Z,9.50
2022-08-26T23:07:46.740Z,9.30
2022-08-26T23:10:20.793Z,8.70
2022-08-26T23:12:55.983Z,9.40
2022-08-26T23:15:30.383Z,10.50
2022-08-26T23:18:05.069Z,8.70
2022-08-26T23:20:39.464Z,9.20
2022-08-26T23:23:13.523Z,8.80
2022-08-26T23:25:48.586Z,9.00
2022-08-26T23:28:23.123Z,9.00
2022-08-26T23:30:58.083Z,9.40
2022-08-26T23:33:53.122Z,8.10
2022-08-26T23:36:26.545Z,8.40
2022-08-26T23:38:59.586Z,9.20
2022-08-26T23:41:32.915Z,8.30
2022-08-26T23:44:06.648Z,9.50
2022-08-26T23:46:39.723Z,9.90
2022-08-26T23:49:13.020Z,9.20
2022-08-26T23:52:05.124Z,8.90
2022-08-26T23:59:43.748Z,9.20
